Time;durP1;ratioP1;P1;durP2;ratioP2;P2;SDS_P1;SDS_P2;PMS_P1;PMS_P2;Temp;Humidity;BMP_temperature;BMP_pressure;BME280_temperature;BME280_humidity;BME280_pressure;Samples;Min_cycle;Max_cycle;Signal;HPM_P1;HPM_P2
2023/07/01 00:00:08;;;;;;;2.45;1.30;;;;;;;15.01;73.95;99438.16;5047163;28;20028;-60
2023/07/01 00:02:36;;;;;;;3.78;1.40;;;;;;;15.02;73.62;99432.00;5047201;28;20085;-60
2023/07/01 00:05:06;;;;;;;3.10;1.50;;;;;;;15.04;73.62;99427.56;5046987;28;20021;-59
2023/07/01 00:07:32;;;;;;;4.65;1.30;;;;;;;15.06;73.96;99430.13;5047113;28;20017;-60
2023/07/01 00:09:57;;;;;;;10.07;1.77;;;;;;;15.09;73.77;99429.97;5046891;28;20029;-60
2023/07/01 00:12:23;;;;;;;3.65;1.63;;;;;;;15.06;73.71;99414.44;5029253;28;20023;-60
2023/07/01 00:14:48;;;;;;;2.60;1.45;;;;;;;15.06;73.45;99417.06;5046877;28;20025;-61
2023/07/01 00:17:16;;;;;;;3.03;1.50;;;;;;;15.05;73.35;99410.97;5046971;28;20033;-60
2023/07/01 00:19:42;;;;;;;3.40;1.77;;;;;;;15.05;73.60;99416.19;5046625;28;20084;-60
2023/07/01 00:22:08;;;;;;;4.70;1.83;;;;;;;15.04;73.76;99413.66;5046689;28;20036;-61
2023/07/01 00:24:33;;;;;;;6.45;1.80;;;;;;;15.02;73.78;99405.88;5046455;28;20033;-59
2023/07/01 00:26:59;;;;;;;5.00;2.10;;;;;;;15.03;73.58;99412.78;5046741;28;20036;-60
2023/07/01 00:29:24;;;;;;;7.10;1.92;;;;;;;15.06;73.82;99417.06;5046490;28;20025;-61
2023/07/01 00:31:50;;;;;;;3.55;1.17;;;;;;;15.08;73.73;99417.84;5046471;28;20024;-59
2023/07/01 00:34:15;;;;;;;4.93;1.55;;;;;;;15.08;73.59;99415.22;5045981;28;20049;-60
2023/07/01 00:36:40;;;;;;;5.47;1.65;;;;;;;15.09;74.03;99415.16;5046453;28;20476;-60
2023/07/01 00:39:06;;;;;;;12.43;1.80;;;;;;;15.11;73.68;99418.53;5046103;28;20021;-60
2023/07/01 00:41:31;;;;;;;9.88;1.77;;;;;;;15.03;74.02;99407.56;5046486;28;20077;-60
2023/07/01 00:43:58;;;;;;;4.15;2.05;;;;;;;15.13;73.77;99412.41;5046021;28;20109;-60
2023/07/01 00:46:23;;;;;;;3.70;1.90;;;;;;;15.10;74.45;99411.63;5045738;28;20056;-60
2023/07/01 00:48:49;;;;;;;8.38;1.70;;;;;;;15.06;74.73;99401.38;5046093;28;20021;-60
2023/07/01 00:51:14;;;;;;;4.65;1.75;;;;;;;14.99;75.08;99391.19;5046171;28;20025;-59
2023/07/01 00:53:40;;;;;;;3.33;1.33;;;;;;;15.03;75.34;99401.50;5045804;28;20017;-60
2023/07/01 00:56:06;;;;;;;12.48;1.65;;;;;;;15.05;75.08;99402.28;5046170;28;20031;-60
2023/07/01 00:58:32;;;;;;;2.50;1.30;;;;;;;15.04;75.57;99403.19;5046082;28;20450;-60
2023/07/01 01:01:02;;;;;;;4.15;1.70;;;;;;;15.02;75.79;99400.66;5045855;28;20111;-60
2023/07/01 01:03:42;;;;;;;9.32;1.90;;;;;;;14.97;76.14;99390.38;5045856;28;20392;-60
2023/07/01 01:06:43;;;;;;;5.60;1.83;;;;;;;15.04;75.95;99395.34;5045878;28;20026;-59
2023/07/01 01:09:22;;;;;;;3.40;1.63;;;;;;;15.02;75.93;99392.81;5045752;28;20022;-61
2023/07/01 01:11:49;;;;;;;5.30;1.77;;;;;;;15.01;75.88;99388.50;5045833;28;20036;-60
2023/07/01 01:14:16;;;;;;;6.28;1.63;;;;;;;15.02;75.60;99381.50;5045504;28;20547;-61
2023/07/01 01:16:43;;;;;;;6.38;1.55;;;;;;;15.01;75.76;99383.28;5045777;28;20037;-60
2023/07/01 01:19:32;;;;;;;8.10;1.50;;;;;;;14.98;75.90;99383.41;5045559;28;20032;-62
2023/07/01 01:22:05;;;;;;;5.90;2.83;;;;;;;14.96;75.83;99383.47;5045663;28;20389;-60
2023/07/01 01:24:34;;;;;;;6.43;1.98;;;;;;;14.98;76.02;99378.19;5045380;28;20037;-60
2023/07/01 01:27:04;;;;;;;2.45;1.17;;;;;;;15.01;75.98;99383.28;5045589;28;20052;-60
2023/07/01 01:29:30;;;;;;;5.70;1.67;;;;;;;15.06;76.13;99380.47;5045602;28;20052;-60
2023/07/01 01:31:55;;;;;;;5.20;1.65;;;;;;;15.04;75.77;99369.22;5045525;28;20465;-60
2023/07/01 01:34:21;;;;;;;3.83;1.45;;;;;;;15.10;75.48;99374.16;5043883;28;20061;-59
2023/07/01 01:36:57;;;;;;;5.90;1.85;;;;;;;15.14;75.55;99372.28;5045469;28;20048;-60
2023/07/01 01:39:30;;;;;;;2.80;1.73;;;;;;;15.05;75.85;99352.63;5044920;28;20481;-61
2023/07/01 01:42:07;;;;;;;7.63;2.03;;;;;;;15.15;75.71;99368.72;5045367;28;20047;-60
2023/07/01 01:44:53;;;;;;;1.77;1.35;;;;;;;15.13;75.70;99366.19;5045219;28;20026;-60
2023/07/01 01:47:25;;;;;;;5.13;1.95;;;;;;;15.16;75.99;99355.59;5045156;28;20116;-60
2023/07/01 01:49:58;;;;;;;8.10;2.10;;;;;;;15.20;75.77;99358.94;5045184;28;20101;-61
2023/07/01 01:52:24;;;;;;;2.78;1.45;;;;;;;15.23;75.50;99357.03;5027461;28;20032;-60
2023/07/01 01:54:52;;;;;;;2.85;1.58;;;;;;;15.23;75.70;99350.94;5044997;28;20049;-60
2023/07/01 01:57:18;;;;;;;3.00;1.80;;;;;;;15.22;75.87;99354.50;5045081;28;20056;-60
2023/07/01 01:59:44;;;;;;;2.97;1.85;;;;;;;15.26;75.57;99339.50;5045055;28;20028;-60
2023/07/01 02:02:10;;;;;;;4.03;1.50;;;;;;;15.23;75.44;99345.72;5045103;28;20029;-59
2023/07/01 02:04:36;;;;;;;7.85;1.92;;;;;;;15.17;75.35;99325.94;5045047;28;20059;-60
2023/07/01 02:07:01;;;;;;;2.85;1.75;;;;;;;15.24;75.44;99331.72;5044856;28;20091;-59
2023/07/01 02:09:28;;;;;;;10.02;1.30;;;;;;;15.20;75.40;99341.50;5044821;28;20470;-60
2023/07/01 02:11:54;;;;;;;7.18;1.88;;;;;;;15.13;75.66;99329.59;5045122;28;20021;-60
2023/07/01 02:14:20;;;;;;;5.50;1.52;;;;;;;15.19;75.27;99328.47;5044968;28;20026;-60
2023/07/01 02:16:45;;;;;;;3.25;1.65;;;;;;;15.17;75.15;99332.94;5044957;28;20108;-59
2023/07/01 02:19:11;;;;;;;2.03;1.33;;;;;;;15.19;75.47;99333.72;5044989;28;20091;-60
2023/07/01 02:21:36;;;;;;;14.35;1.77;;;;;;;15.19;75.05;99331.09;5044915;28;20136;-59
2023/07/01 02:24:02;;;;;;;1.83;1.40;;;;;;;15.19;74.88;99328.47;5044626;28;20021;-59
2023/07/01 02:26:27;;;;;;;3.55;1.42;;;;;;;15.20;74.87;99327.56;5044997;28;20033;-60
2023/07/01 02:28:52;;;;;;;2.25;1.52;;;;;;;15.19;74.68;99321.47;5043473;28;20097;-60
2023/07/01 02:31:18;;;;;;;2.25;1.33;;;;;;;15.16;74.83;99321.59;5044703;28;20045;-60
2023/07/01 02:33:49;;;;;;;6.40;1.80;;;;;;;15.18;74.83;99326.78;5044697;28;20022;-60
2023/07/01 02:36:14;;;;;;;5.85;1.20;;;;;;;15.16;74.67;99321.59;5044796;28;20073;-59
2023/07/01 02:38:40;;;;;;;3.75;1.58;;;;;;;15.19;74.64;99328.47;5044733;28;20022;-60
2023/07/01 02:41:05;;;;;;;5.95;1.40;;;;;;;15.21;74.36;99326.63;5043361;28;20087;-60
2023/07/01 02:43:30;;;;;;;1.85;1.17;;;;;;;15.20;74.10;99317.09;5044561;28;20112;-60
2023/07/01 02:45:56;;;;;;;6.60;1.95;;;;;;;15.23;73.97;99317.81;5044661;28;20064;-61
2023/07/01 02:48:21;;;;;;;6.45;1.80;;;;;;;15.24;73.85;99313.41;5043238;28;20025;-60
2023/07/01 02:50:47;;;;;;;3.53;1.45;;;;;;;15.27;73.80;99315.88;5044616;28;20037;-60
2023/07/01 02:53:12;;;;;;;1.75;1.52;;;;;;;15.31;73.43;99311.38;5044487;28;20032;-60
2023/07/01 02:55:38;;;;;;;1.30;1.17;;;;;;;15.32;73.28;99305.25;5044449;28;20033;-60
2023/07/01 02:58:03;;;;;;;1.50;1.20;;;;;;;15.35;73.02;99305.94;5044682;28;20469;-60
2023/07/01 03:00:29;;;;;;;2.35;1.17;;;;;;;15.35;73.20;99299.88;5044547;28;20028;-60
2023/07/01 03:02:54;;;;;;;6.50;1.42;;;;;;;15.38;72.96;99291.88;5044351;28;20045;-60
2023/07/01 03:05:21;;;;;;;7.25;2.03;;;;;;;15.41;72.86;99299.59;5044421;28;20504;-61
2023/07/01 03:07:51;;;;;;;3.92;1.35;;;;;;;15.43;72.75;99297.72;5044637;28;20073;-59
2023/07/01 03:10:16;;;;;;;2.38;1.60;;;;;;;15.44;72.78;99288.13;5048060;28;20095;-61
2023/07/01 03:12:42;;;;;;;4.50;1.50;;;;;;;15.47;72.80;99283.59;5048091;28;20430;-59
2023/07/01 03:15:08;;;;;;;2.55;1.17;;;;;;;15.52;72.69;99282.53;5046737;28;20028;-61
2023/07/01 03:17:34;;;;;;;9.15;1.48;;;;;;;15.51;72.61;99278.22;5048062;28;20026;-60
2023/07/01 03:19:59;;;;;;;3.28;1.23;;;;;;;15.54;72.80;99273.72;5030110;28;20021;-61
2023/07/01 03:22:25;;;;;;;2.95;1.70;;;;;;;15.64;72.69;99276.72;5048119;28;20021;-60
2023/07/01 03:24:50;;;;;;;5.45;1.95;;;;;;;15.68;72.52;99267.81;5047814;28;20025;-60
2023/07/01 03:27:16;;;;;;;2.47;1.35;;;;;;;15.66;72.25;99274.03;5048025;28;20366;-60
2023/07/01 03:29:41;;;;;;;6.38;2.40;;;;;;;15.65;72.34;99273.19;5047725;28;20030;-60
2023/07/01 03:32:07;;;;;;;2.15;1.33;;;;;;;15.66;72.58;99268.78;5047904;28;20021;-61
2023/07/01 03:34:33;;;;;;;2.60;1.33;;;;;;;15.69;72.49;99272.13;5047568;28;20053;-59
2023/07/01 03:36:58;;;;;;;1.73;1.23;;;;;;;15.71;72.91;99270.28;5047706;28;20393;-60
2023/07/01 03:39:23;;;;;;;2.92;1.55;;;;;;;15.71;72.72;99259.81;5047456;28;20535;-60
2023/07/01 03:41:49;;;;;;;8.38;1.95;;;;;;;15.77;72.56;99265.69;5047595;28;20393;-61
2023/07/01 03:44:14;;;;;;;4.88;1.75;;;;;;;15.82;72.41;99269.75;5047546;28;20296;-61
2023/07/01 03:46:40;;;;;;;8.75;1.92;;;;;;;15.83;72.56;99273.22;5047607;28;20022;-60
2023/07/01 03:49:06;;;;;;;1.75;1.25;;;;;;;15.87;72.38;99277.38;5046159;28;20029;-60
2023/07/01 03:51:32;;;;;;;2.65;1.55;;;;;;;15.86;71.97;99260.81;5047533;28;20100;-60
2023/07/01 03:53:58;;;;;;;11.93;2.03;;;;;;;15.92;71.80;99254.47;5047162;28;20021;-59
2023/07/01 03:56:23;;;;;;;2.50;1.42;;;;;;;15.91;71.79;99250.13;5029518;28;20032;-61
2023/07/01 03:58:49;;;;;;;9.80;1.75;;;;;;;15.94;71.33;99260.44;5047443;28;20036;-60
2023/07/01 04:01:16;;;;;;;2.20;1.52;;;;;;;15.94;71.31;99259.63;5047390;28;20025;-60
2023/07/01 04:03:41;;;;;;;1.95;1.38;;;;;;;15.92;71.10;99254.47;5047315;28;20025;-60
2023/07/01 04:06:07;;;;;;;2.17;1.40;;;;;;;15.92;70.89;99245.75;5047257;28;20024;-60
2023/07/01 04:08:32;;;;;;;5.18;1.35;;;;;;;15.96;70.92;99255.97;5047045;28;20045;-61
2023/07/01 04:10:58;;;;;;;5.63;1.92;;;;;;;15.94;70.84;99247.34;5046969;28;20076;-60
2023/07/01 04:13:24;;;;;;;6.85;1.65;;;;;;;15.94;70.26;99247.34;5047163;28;20032;-60
2023/07/01 04:15:49;;;;;;;4.35;1.55;;;;;;;15.89;70.21;99248.50;5046869;28;20064;-61
2023/07/01 04:18:15;;;;;;;1.25;1.10;;;;;;;15.85;70.07;99235.59;5047045;28;20123;-61
2023/07/01 04:20:40;;;;;;;1.00;0.90;;;;;;;15.84;70.58;99233.91;5045943;28;20032;-60
2023/07/01 04:23:06;;;;;;;1.42;1.02;;;;;;;15.84;70.54;99231.28;5046858;28;20051;-60
2023/07/01 04:25:31;;;;;;;1.92;1.00;;;;;;;15.81;70.77;99226.19;5045471;28;20017;-60
2023/07/01 04:27:57;;;;;;;4.05;1.25;;;;;;;15.85;70.84;99230.34;5046846;28;20028;-60
2023/07/01 04:30:23;;;;;;;2.53;1.05;;;;;;;15.88;70.98;99231.97;5028868;28;20456;-61
2023/07/01 04:32:48;;;;;;;1.48;1.38;;;;;;;15.89;71.04;99219.72;5046833;28;20030;-60
2023/07/01 04:35:14;;;;;;;6.57;1.33;;;;;;;15.90;70.93;99218.78;5046515;28;20132;-60
2023/07/01 04:37:40;;;;;;;1.10;1.00;;;;;;;15.91;70.88;99220.50;5046636;28;20025;-59
2023/07/01 04:40:06;;;;;;;7.97;1.25;;;;;;;15.88;70.99;99218.88;5046422;28;20025;-60
2023/07/01 04:42:34;;;;;;;1.10;0.95;;;;;;;15.91;71.07;99215.28;5046449;28;20079;-60
2023/07/01 04:45:00;;;;;;;4.45;1.63;;;;;;;15.90;71.24;99205.72;5046268;28;20032;-60
2023/07/01 04:47:25;;;;;;;1.48;1.27;;;;;;;16.05;71.17;99198.91;5046492;28;20045;-59
2023/07/01 04:49:52;;;;;;;3.22;1.40;;;;;;;16.12;70.96;99202.06;5046303;28;20079;-60
2023/07/01 04:52:22;;;;;;;1.77;0.85;;;;;;;16.13;70.69;99195.88;5046355;28;20100;-60
2023/07/01 04:54:49;;;;;;;2.13;1.30;;;;;;;16.19;70.52;99203.44;5028138;28;20025;-60
2023/07/01 04:57:15;;;;;;;7.50;1.23;;;;;;;16.21;70.56;99191.94;5046345;28;20025;-60
2023/07/01 04:59:41;;;;;;;4.78;1.52;;;;;;;16.26;70.42;99188.25;5046330;28;20030;-60
2023/07/01 05:02:06;;;;;;;2.95;1.17;;;;;;;16.27;70.37;99184.69;5046037;28;20469;-59
2023/07/01 05:04:32;;;;;;;2.20;1.30;;;;;;;16.29;70.05;99188.94;5045969;28;20113;-60
2023/07/01 05:06:57;;;;;;;1.20;1.10;;;;;;;16.29;70.05;99181.09;5046107;28;20017;-60
2023/07/01 05:09:22;;;;;;;2.40;1.27;;;;;;;16.30;70.15;99179.31;5045831;28;20037;-61
2023/07/01 05:11:48;;;;;;;4.78;1.20;;;;;;;16.24;70.32;99177.84;5046104;28;20027;-60
2023/07/01 05:14:13;;;;;;;8.32;1.40;;;;;;;16.17;70.41;99177.31;5044695;28;20022;-60
2023/07/01 05:16:39;;;;;;;1.15;0.90;;;;;;;16.09;71.15;99169.88;5045838;28;20103;-60
2023/07/01 05:19:04;;;;;;;5.03;1.35;;;;;;;16.06;71.09;99171.78;5028156;28;20049;-61
2023/07/01 05:21:32;;;;;;;2.83;1.52;;;;;;;15.97;71.71;99167.84;5045795;28;20077;-61
2023/07/01 05:23:57;;;;;;;4.47;1.30;;;;;;;15.97;71.78;99166.09;5045546;28;20072;-59
2023/07/01 05:26:23;;;;;;;5.20;1.88;;;;;;;15.92;72.18;99155.00;5045822;28;20025;-60
2023/07/01 05:28:48;;;;;;;2.30;1.33;;;;;;;15.92;71.97;99175.94;5045788;28;20111;-61
2023/07/01 05:31:14;;;;;;;6.68;1.30;;;;;;;15.88;72.08;99170.94;5045537;28;20060;-60
2023/07/01 05:33:39;;;;;;;1.42;1.10;;;;;;;15.81;72.43;99166.03;5045509;28;20049;-61
2023/07/01 05:36:05;;;;;;;2.50;1.05;;;;;;;15.67;71.89;99135.28;5045436;28;20048;-60
2023/07/01 05:38:30;;;;;;;3.78;1.58;;;;;;;15.82;71.85;99167.69;5045394;28;20355;-60
2023/07/01 05:40:55;;;;;;;4.03;1.35;;;;;;;15.84;72.12;99167.63;5045384;28;20021;-60
2023/07/01 05:43:21;;;;;;;1.15;0.88;;;;;;;15.82;71.65;99170.31;5045592;28;20025;-60
2023/07/01 05:45:46;;;;;;;1.13;0.90;;;;;;;15.74;71.29;99157.63;5045433;28;20077;-61
2023/07/01 05:48:12;;;;;;;3.30;1.75;;;;;;;15.70;71.18;99161.28;5045392;28;20362;-60
2023/07/01 05:50:39;;;;;;;3.83;1.30;;;;;;;15.64;71.03;99155.53;5045524;28;20346;-61
2023/07/01 05:53:05;;;;;;;1.23;1.00;;;;;;;15.54;71.05;99149.91;5045431;28;20081;-62
2023/07/01 05:55:30;;;;;;;1.70;1.15;;;;;;;15.56;70.76;99151.53;5044943;28;20044;-60
2023/07/01 05:57:55;;;;;;;1.77;1.13;;;;;;;15.50;71.02;99164.91;5045171;28;20025;-61
2023/07/01 06:00:22;;;;;;;2.92;1.23;;;;;;;15.41;71.04;99163.59;5045257;28;20036;-60
2023/07/01 06:02:47;;;;;;;2.05;1.77;;;;;;;15.25;71.24;99160.88;5045203;28;20029;-60
2023/07/01 06:05:12;;;;;;;4.32;1.80;;;;;;;15.07;71.57;99166.06;5045109;28;20028;-61
2023/07/01 06:07:38;;;;;;;3.17;1.35;;;;;;;14.87;72.33;99162.59;5045208;28;20418;-61
2023/07/01 06:10:03;;;;;;;10.38;1.95;;;;;;;14.77;72.82;99157.84;5044903;28;20025;-61
2023/07/01 06:12:29;;;;;;;2.75;2.30;;;;;;;14.66;73.15;99143.53;5045082;28;20077;-60
2023/07/01 06:14:54;;;;;;;2.03;1.63;;;;;;;14.57;73.45;99130.91;5044976;28;20057;-61
2023/07/01 06:17:20;;;;;;;3.20;1.63;;;;;;;14.65;73.03;99149.66;5044985;28;20026;-61
2023/07/01 06:19:45;;;;;;;3.90;2.00;;;;;;;14.62;73.65;99140.19;5044932;28;20022;-61
2023/07/01 06:22:10;;;;;;;3.67;1.95;;;;;;;14.66;73.36;99146.13;5043646;28;20053;-61
2023/07/01 06:24:36;;;;;;;2.35;1.65;;;;;;;14.75;73.58;99150.09;5043499;28;20029;-62
2023/07/01 06:27:01;;;;;;;2.10;1.90;;;;;;;14.80;73.30;99135.06;5044906;28;20076;-60
2023/07/01 06:29:27;;;;;;;2.95;1.67;;;;;;;14.77;73.33;99119.50;5044683;28;20029;-60
2023/07/01 06:31:52;;;;;;;2.60;1.45;;;;;;;15.03;73.53;99134.91;5045030;28;20383;-61
2023/07/01 06:34:17;;;;;;;1.98;1.60;;;;;;;15.20;73.48;99128.88;5044758;28;20043;-60
2023/07/01 06:36:44;;;;;;;2.78;1.35;;;;;;;15.40;73.24;99127.88;5045040;28;20418;-61
2023/07/01 06:39:09;;;;;;;4.50;2.00;;;;;;;15.54;73.65;99129.00;5044368;28;20026;-60
2023/07/01 06:41:35;;;;;;;2.63;1.40;;;;;;;15.68;73.28;99125.69;5045155;28;20045;-60
2023/07/01 06:44:01;;;;;;;1.30;1.10;;;;;;;15.70;72.29;99119.44;5046389;28;20077;-61
2023/07/01 06:46:26;;;;;;;3.97;1.35;;;;;;;15.51;72.57;99111.66;5048809;28;20458;-61
2023/07/01 06:48:52;;;;;;;2.30;1.15;;;;;;;15.36;73.62;99106.31;5048470;28;20029;-60
2023/07/01 06:51:18;;;;;;;5.20;1.63;;;;;;;15.22;73.66;99099.09;5048639;28;20049;-60
2023/07/01 06:53:43;;;;;;;2.40;1.60;;;;;;;15.22;74.09;99099.09;5048393;28;20029;-60
2023/07/01 06:56:09;;;;;;;2.38;1.40;;;;;;;15.26;74.06;99096.34;5048276;28;20037;-61
2023/07/01 06:58:34;;;;;;;1.48;1.05;;;;;;;15.25;73.94;99105.97;5048539;28;20028;-60
2023/07/01 07:01:00;;;;;;;1.92;1.40;;;;;;;15.15;74.05;99109.94;5048396;28;20017;-60
2023/07/01 07:03:25;;;;;;;4.38;1.35;;;;;;;15.01;74.63;99121.06;5048336;28;20033;-60
2023/07/01 07:05:54;;;;;;;4.60;1.75;;;;;;;14.73;75.22;99118.81;5048543;28;20021;-61
2023/07/01 07:08:20;;;;;;;1.70;1.13;;;;;;;14.46;76.11;99120.91;5047098;28;20029;-61
2023/07/01 07:10:46;;;;;;;2.85;1.35;;;;;;;14.29;76.70;99116.47;5048091;28;20032;-62
2023/07/01 07:13:11;;;;;;;5.55;1.65;;;;;;;14.13;77.73;99114.53;5048168;28;20051;-64
2023/07/01 07:15:38;;;;;;;3.08;1.77;;;;;;;14.07;78.33;99110.44;5047921;28;20096;-63
2023/07/01 07:18:06;;;;;;;5.57;1.52;;;;;;;14.06;78.47;99100.91;5048009;28;20021;-63
2023/07/01 07:20:31;;;;;;;1.95;1.33;;;;;;;14.07;78.83;99094.78;5047978;28;20025;-63
2023/07/01 07:22:57;;;;;;;2.00;1.60;;;;;;;14.06;80.13;99090.47;5030258;28;20125;-62
2023/07/01 07:25:22;;;;;;;4.22;1.90;;;;;;;14.13;80.42;99086.69;5047815;28;20045;-62
2023/07/01 07:27:48;;;;;;;2.80;1.65;;;;;;;14.21;80.67;99077.66;5030207;28;20029;-61
2023/07/01 07:30:14;;;;;;;4.07;1.63;;;;;;;14.35;81.18;99083.09;5047893;28;20025;-61
2023/07/01 07:32:39;;;;;;;5.72;1.85;;;;;;;14.48;82.56;99069.47;5047973;28;20028;-61
2023/07/01 07:35:05;;;;;;;5.95;1.60;;;;;;;14.62;83.36;99069.69;5047630;28;20045;-60
2023/07/01 07:37:31;;;;;;;3.42;2.05;;;;;;;14.83;84.21;99066.16;5047873;28;20036;-60
2023/07/01 07:39:59;;;;;;;4.13;1.90;;;;;;;15.05;84.27;99063.34;5047227;28;20051;-61
2023/07/01 07:42:25;;;;;;;1.75;1.48;;;;;;;15.26;84.16;99057.13;5046132;28;20048;-61
2023/07/01 07:44:50;;;;;;;4.15;1.65;;;;;;;15.27;83.97;99027.47;5047575;28;20053;-60
2023/07/01 07:47:16;;;;;;;3.72;1.77;;;;;;;15.68;84.04;99058.50;5047632;28;20123;-60
2023/07/01 07:49:41;;;;;;;4.63;1.98;;;;;;;15.90;83.70;99067.84;5047324;28;20025;-60
2023/07/01 07:52:07;;;;;;;2.45;1.30;;;;;;;15.99;83.26;99066.56;5047512;28;20030;-59
2023/07/01 07:54:32;;;;;;;6.47;1.20;;;;;;;16.10;82.75;99064.22;5046983;28;20560;-59
2023/07/01 07:56:59;;;;;;;5.32;1.92;;;;;;;16.20;82.56;99061.09;5047394;28;20147;-58
2023/07/01 07:59:28;;;;;;;2.47;1.60;;;;;;;16.26;81.34;99068.66;5047135;28;20076;-58
2023/07/01 08:01:56;;;;;;;2.13;1.55;;;;;;;16.38;80.16;99068.91;5047111;28;20108;-60
2023/07/01 08:04:22;;;;;;;2.75;1.25;;;;;;;16.44;78.65;99060.69;5047005;28;20040;-58
2023/07/01 08:06:48;;;;;;;2.95;1.80;;;;;;;16.52;77.34;99058.50;5047231;28;20454;-59
2023/07/01 08:09:14;;;;;;;2.00;1.33;;;;;;;16.65;76.59;99060.44;5046762;28;20032;-58
2023/07/01 08:11:39;;;;;;;3.03;1.88;;;;;;;16.95;76.99;99046.56;5047113;28;20025;-58
2023/07/01 08:14:05;;;;;;;5.00;1.90;;;;;;;17.39;75.40;99041.47;5046967;28;20025;-59
2023/07/01 08:16:32;;;;;;;5.07;2.05;;;;;;;17.68;74.37;99044.97;5045618;28;20021;-60
2023/07/01 08:18:57;;;;;;;5.20;1.95;;;;;;;17.77;71.61;99034.88;5046679;28;20032;-60
2023/07/01 08:21:23;;;;;;;1.77;1.45;;;;;;;17.85;70.23;99037.88;5046828;28;20025;-60
2023/07/01 08:23:48;;;;;;;1.13;1.02;;;;;;;17.97;71.06;99038.94;5046426;28;20053;-61
2023/07/01 08:26:14;;;;;;;4.88;1.65;;;;;;;18.13;70.72;99035.38;5046628;28;20025;-61
2023/07/01 08:28:39;;;;;;;3.10;1.77;;;;;;;18.17;68.93;99036.88;5046770;28;20093;-59
2023/07/01 08:31:05;;;;;;;4.38;1.95;;;;;;;18.00;67.80;99030.84;5046797;28;20057;-59
2023/07/01 08:33:31;;;;;;;3.17;1.58;;;;;;;17.94;68.61;99033.84;5046423;28;20025;-59
2023/07/01 08:35:57;;;;;;;2.13;1.45;;;;;;;17.87;68.80;99046.50;5046614;28;20072;-59
2023/07/01 08:38:23;;;;;;;2.83;1.45;;;;;;;17.77;67.87;99040.13;5046425;28;20022;-60
2023/07/01 08:40:52;;;;;;;1.50;1.25;;;;;;;17.72;68.11;99043.03;5046337;28;20049;-60
2023/07/01 08:43:21;;;;;;;2.22;1.42;;;;;;;17.66;67.51;99040.78;5046441;28;20063;-60
2023/07/01 08:45:50;;;;;;;7.47;1.45;;;;;;;17.55;66.19;99039.66;5046251;28;20100;-61
2023/07/01 08:48:21;;;;;;;2.33;1.45;;;;;;;17.47;66.69;99036.63;5046095;28;20113;-59
2023/07/01 08:51:03;;;;;;;2.00;1.27;;;;;;;17.36;66.24;99029.41;5046245;28;20029;-59
2023/07/01 08:53:29;;;;;;;2.13;1.55;;;;;;;17.20;66.38;99032.06;5045998;28;20029;-60
2023/07/01 08:55:56;;;;;;;6.82;2.08;;;;;;;16.97;66.71;99028.97;5045659;28;20029;-60
2023/07/01 08:58:23;;;;;;;3.78;1.33;;;;;;;16.89;67.59;99029.41;5046160;28;20026;-60
2023/07/01 09:00:49;;;;;;;4.03;1.38;;;;;;;16.81;67.48;99027.22;5046224;28;20025;-60
2023/07/01 09:03:15;;;;;;;2.25;1.23;;;;;;;16.72;67.88;99027.75;5046040;28;20022;-61
2023/07/01 09:05:41;;;;;;;6.43;1.15;;;;;;;16.68;67.67;99026.22;5045860;28;20053;-59
2023/07/01 09:08:06;;;;;;;2.28;1.35;;;;;;;16.59;68.23;99022.34;5045987;28;20022;-59
2023/07/01 09:10:32;;;;;;;1.50;1.20;;;;;;;16.59;68.05;99019.72;5045820;28;20025;-60
2023/07/01 09:13:18;;;;;;;4.93;1.13;;;;;;;16.54;69.04;99013.91;5045963;28;20026;-60
2023/07/01 09:15:46;;;;;;;1.23;0.93;;;;;;;16.66;69.41;99007.13;5045311;28;20343;-60
2023/07/01 09:18:18;;;;;;;2.83;1.55;;;;;;;16.98;69.62;99012.31;5045856;28;20462;-59
2023/07/01 09:20:44;;;;;;;1.98;1.25;;;;;;;17.49;68.77;98998.03;5045874;28;20034;-60
2023/07/01 09:23:09;;;;;;;3.55;1.25;;;;;;;18.05;68.31;99002.50;5045839;28;20032;-60
2023/07/01 09:25:34;;;;;;;4.82;1.73;;;;;;;18.47;66.34;98993.81;5045517;28;20031;-60
2023/07/01 09:28:00;;;;;;;2.17;1.40;;;;;;;18.81;66.54;98996.91;5045803;28;20026;-60
2023/07/01 09:30:27;;;;;;;2.05;1.10;;;;;;;19.11;65.81;99000.25;5045464;28;20393;-61
2023/07/01 09:33:09;;;;;;;1.23;1.10;;;;;;;19.19;64.29;98990.06;5045685;28;20018;-61
2023/07/01 09:35:42;;;;;;;1.75;1.10;;;;;;;19.21;63.47;98992.59;5045302;28;20056;-60
2023/07/01 09:38:07;;;;;;;1.48;0.90;;;;;;;19.26;62.00;98987.88;5045337;28;20075;-61
2023/07/01 09:40:33;;;;;;;2.15;1.10;;;;;;;19.34;62.06;98986.50;5044880;28;20485;-60
2023/07/01 09:42:58;;;;;;;2.25;1.02;;;;;;;19.28;60.86;98972.81;5027559;28;20063;-60
2023/07/01 09:45:24;;;;;;;3.72;1.70;;;;;;;19.36;61.22;98982.78;5045343;28;20036;-60
2023/07/01 09:47:53;;;;;;;1.30;1.20;;;;;;;19.54;62.24;98975.44;5044215;28;20090;-61
2023/07/01 09:50:23;;;;;;;2.08;1.45;;;;;;;19.71;61.51;98965.53;5044962;28;20028;-60
2023/07/01 09:52:50;;;;;;;3.83;1.52;;;;;;;20.43;61.68;98960.53;5045229;28;20556;-60
2023/07/01 09:55:16;;;;;;;1.70;1.00;;;;;;;20.74;60.77;98954.75;5045167;28;20057;-60
2023/07/01 09:57:42;;;;;;;1.60;1.05;;;;;;;20.72;60.78;98957.50;5045018;28;20025;-60
2023/07/01 10:00:12;;;;;;;2.17;1.02;;;;;;;21.08;60.30;98947.00;5045137;28;20021;-60
2023/07/01 10:02:37;;;;;;;2.17;1.10;;;;;;;22.33;58.79;98947.06;5045240;28;20030;-60
2023/07/01 10:05:03;;;;;;;2.35;0.98;;;;;;;23.32;58.08;98938.06;5045117;28;20033;-60
2023/07/01 10:07:29;;;;;;;1.73;1.10;;;;;;;23.64;56.03;98933.63;5045134;28;20026;-59
2023/07/01 10:09:55;;;;;;;2.67;0.90;;;;;;;23.12;51.81;98931.81;5044758;28;20022;-60
2023/07/01 10:12:21;;;;;;;0.57;0.57;;;;;;;22.60;51.91;98936.09;5027419;28;20021;-61
2023/07/01 10:14:51;;;;;;;2.53;1.55;;;;;;;22.12;51.97;98929.34;5045162;28;20026;-60
2023/07/01 10:17:18;;;;;;;1.00;0.90;;;;;;;21.74;51.88;98929.63;5043814;28;20112;-59
2023/07/01 10:19:46;;;;;;;2.17;1.08;;;;;;;21.41;53.27;98926.88;5048135;28;20021;-60
2023/07/01 10:22:29;;;;;;;5.03;1.20;;;;;;;21.00;54.66;98920.34;5049035;28;20027;-59
2023/07/01 10:25:06;;;;;;;1.85;0.90;;;;;;;21.14;55.08;98921.94;5048886;28;20096;-60
2023/07/01 10:27:41;;;;;;;1.30;0.90;;;;;;;21.23;54.57;98915.94;5049161;28;20080;-59
2023/07/01 10:30:11;;;;;;;2.58;0.80;;;;;;;21.23;54.33;98909.84;5048780;28;20025;-59
2023/07/01 10:32:37;;;;;;;1.13;0.80;;;;;;;21.41;54.88;98907.53;5049110;28;20044;-59
2023/07/01 10:35:03;;;;;;;1.40;0.98;;;;;;;22.47;54.70;98904.50;5048900;28;20041;-59
2023/07/01 10:37:31;;;;;;;2.83;1.40;;;;;;;22.94;53.48;98902.47;5048912;28;20045;-60
2023/07/01 10:39:58;;;;;;;1.90;1.23;;;;;;;22.52;51.43;98875.03;5048358;28;20037;-59
2023/07/01 10:42:32;;;;;;;2.15;1.67;;;;;;;22.12;50.75;98892.34;5048598;28;20052;-60
2023/07/01 10:45:43;;;;;;;1.35;1.00;;;;;;;21.54;50.56;98900.34;5048696;28;20025;-60
2023/07/01 10:48:13;;;;;;;1.40;1.00;;;;;;;21.03;52.61;98893.72;5043611;28;20044;-60
2023/07/01 10:51:05;;;;;;;1.98;1.02;;;;;;;20.77;52.75;98885.97;5048636;28;20259;-60
2023/07/01 10:54:02;;;;;;;1.13;0.98;;;;;;;20.47;53.49;98884.69;5042114;28;20041;-60
2023/07/01 10:56:30;;;;;;;3.10;1.20;;;;;;;20.26;54.81;98885.31;5048326;28;20030;-60
2023/07/01 10:59:17;;;;;;;5.15;1.38;;;;;;;20.15;55.38;98876.44;5048551;28;20032;-59
2023/07/01 11:01:45;;;;;;;1.20;0.98;;;;;;;20.10;55.80;98875.91;5048520;28;20021;-61
2023/07/01 11:04:11;;;;;;;1.45;1.20;;;;;;;19.92;55.76;98868.38;5048253;28;20029;-59
2023/07/01 11:06:53;;;;;;;5.03;1.15;;;;;;;19.71;56.18;98862.88;5048500;28;20036;-59
2023/07/01 11:09:32;;;;;;;1.63;1.10;;;;;;;19.78;56.70;98865.88;5047952;28;20117;-59
2023/07/01 11:12:00;;;;;;;2.17;1.00;;;;;;;20.09;56.96;98866.34;5048284;28;20485;-60
2023/07/01 11:14:44;;;;;;;2.95;1.40;;;;;;;20.48;56.32;98862.66;5048083;28;20032;-59
2023/07/01 11:17:14;;;;;;;2.38;1.13;;;;;;;20.54;55.59;98867.47;5048233;28;20036;-59
2023/07/01 11:19:39;;;;;;;2.63;1.55;;;;;;;20.47;55.37;98850.41;5047994;28;20051;-59
2023/07/01 11:22:05;;;;;;;2.28;1.35;;;;;;;20.21;55.42;98859.31;5047911;28;20277;-59
2023/07/01 11:24:31;;;;;;;3.03;1.30;;;;;;;19.79;56.12;98836.81;5047563;28;20391;-60
2023/07/01 11:27:07;;;;;;;2.58;1.20;;;;;;;19.59;56.56;98850.56;5048099;28;20032;-59
2023/07/01 11:29:33;;;;;;;0.95;0.82;;;;;;;19.29;57.47;98860.53;5047335;28;20029;-60
2023/07/01 11:32:06;;;;;;;1.20;1.00;;;;;;;18.90;58.41;98856.09;5047761;28;20025;-57
2023/07/01 11:34:33;;;;;;;1.52;1.00;;;;;;;18.63;58.81;98854.38;5046948;28;20109;-59